This is the latest recevied weather packets stored in our database for station/object KB6HGN. If no packets are shown the sender has not sent any weather packets the latest 10 day(s).
| Time | Temp. | Humidity | Pressure | Rain* | Wind** | Luminosity | Snow |
|---|---|---|---|---|---|---|---|
| 1778224804 | 17.22° C | 70% | 1016.6 hPa | 0 mm | - | 0 W/m² | - |
| 1778224504 | 17.22° C | 70% | 1016.6 hPa | 0 mm | - | 0 W/m² | - |
| 1778220904 | 18.33° C | 67% | 1016.6 hPa | 0 mm | - | 0 W/m² | - |
| 1778219705 | 18.89° C | 65% | 1016.2 hPa | 0 mm | - | 0 W/m² | - |
| 1778217605 | 19.44° C | 63% | 1016.2 hPa | 0 mm | - | 0 W/m² | - |
| 1778217304 | 19.44° C | 63% | 1016.2 hPa | 0 mm | - | 0 W/m² | - |
| 1778212504 | 21.11° C | 57% | 1015.6 hPa | 0 mm | - | 0 W/m² | - |
| 1778211304 | 21.11° C | 57% | 1015.2 hPa | 0 mm | - | 0 W/m² | - |
| 1778206804 | 23.89° C | 47% | 1014.5 hPa | 0 mm | - | 1 W/m² | - |
| 1778202605 | 27.22° C | 36% | 1013.9 hPa | 0 mm | - | 125 W/m² | - |
| 1778202304 | 27.78° C | 35% | 1013.9 hPa | 0 mm | - | 145 W/m² | - |
| 1778201404 | 27.78° C | 36% | 1013.9 hPa | 0 mm | - | 210 W/m² | - |
| 1778199605 | 28.33° C | 36% | 1013.9 hPa | 0 mm | - | 349 W/m² | - |
| 1778199006 | 28.33° C | 35% | 1013.8 hPa | 0 mm | - | 388 W/m² | - |
| 1778197504 | 28.89° C | 34% | 1013.5 hPa | 0 mm | - | 487 W/m² | - |
| 1778197204 | 28.89° C | 34% | 1013.5 hPa | 0 mm | - | 497 W/m² | - |
| 1778195104 | 29.44° C | 34% | 1013.5 hPa | 0 mm | - | 620 W/m² | - |
| 1778193905 | 29.44° C | 34% | 1013.5 hPa | 0 mm | - | 668 W/m² | - |
| 1778192404 | 29.44° C | 32% | 1013.5 hPa | 0 mm | - | 740 W/m² | - |
| 1778188805 | 29.44° C | 31% | 1014.4 hPa | 0 mm | - | 849 W/m² | - |
| 1778188204 | 28.89° C | 32% | 1014.5 hPa | 0 mm | - | 863 W/m² | - |
| 1778187004 | 28.33° C | 31% | 1014.5 hPa | 0 mm | - | 887 W/m² | - |
| 1778184604 | 27.78° C | 32% | 1015.2 hPa | 0 mm | - | 916 W/m² | - |
| 1778184004 | 27.22° C | 35% | 1015.2 hPa | 0 mm | - | 919 W/m² | - |
| 1778183404 | 27.22° C | 36% | 1015.2 hPa | 0 mm | - | 920 W/m² | - |
* Rain latest hour (hover to see other rain measurements)
** Current wind speed in m/s (hover to see current wind gust speed)